createdAt,value
2022-07-28T00:00:49.316Z,952.74
2022-07-28T00:01:49.380Z,952.75
2022-07-28T00:02:49.352Z,952.74
2022-07-28T00:03:49.379Z,952.71
2022-07-28T00:04:49.255Z,952.69
2022-07-28T00:05:49.920Z,952.67
2022-07-28T00:06:49.237Z,952.69
2022-07-28T00:07:49.219Z,952.66
2022-07-28T00:08:49.202Z,952.67
2022-07-28T00:09:49.210Z,952.67
2022-07-28T00:10:49.212Z,952.64
2022-07-28T00:11:54.138Z,952.67
2022-07-28T00:12:49.154Z,952.64
2022-07-28T00:13:49.142Z,952.62
2022-07-28T00:14:49.123Z,952.68
2022-07-28T00:15:49.159Z,952.67
2022-07-28T00:16:49.262Z,952.61
2022-07-28T00:17:49.087Z,952.63
2022-07-28T00:18:49.081Z,952.62
2022-07-28T00:19:49.098Z,952.63
2022-07-28T00:20:49.086Z,952.57
2022-07-28T00:21:49.063Z,952.61
2022-07-28T00:22:49.025Z,952.60
2022-07-28T00:23:49.007Z,952.58
2022-07-28T00:24:49.307Z,952.56
2022-07-28T00:25:49.013Z,952.59
2022-07-28T00:26:48.969Z,952.58
2022-07-28T00:27:48.991Z,952.56
2022-07-28T00:28:48.942Z,952.55
2022-07-28T00:29:50.939Z,952.50
2022-07-28T00:30:48.910Z,952.49
2022-07-28T00:31:49.012Z,952.44
2022-07-28T00:32:48.896Z,952.44
2022-07-28T00:33:48.923Z,952.40
2022-07-28T00:34:48.862Z,952.40
2022-07-28T00:35:48.847Z,952.42
2022-07-28T00:36:48.833Z,952.41
2022-07-28T00:37:49.213Z,952.42
2022-07-28T00:38:48.983Z,952.40
2022-07-28T00:39:48.803Z,952.36
2022-07-28T00:40:48.787Z,952.35
2022-07-28T00:41:48.764Z,952.34
2022-07-28T00:42:48.826Z,952.36
2022-07-28T00:43:48.792Z,952.34
2022-07-28T00:44:48.732Z,952.32
2022-07-28T00:45:48.715Z,952.27
2022-07-28T00:46:48.749Z,952.25
2022-07-28T00:47:48.695Z,952.27
2022-07-28T00:48:48.779Z,952.26
2022-07-28T00:49:48.676Z,952.23
2022-07-28T00:50:48.665Z,952.21
2022-07-28T00:51:48.636Z,952.21
2022-07-28T00:52:48.621Z,952.19
2022-07-28T00:53:48.638Z,952.18
2022-07-28T00:54:48.618Z,952.18
2022-07-28T00:56:05.413Z,952.19
2022-07-28T00:56:48.575Z,952.18
2022-07-28T00:57:48.578Z,952.19
2022-07-28T00:58:48.542Z,952.19
2022-07-28T00:59:48.557Z,952.21
2022-07-28T01:00:48.514Z,952.19
2022-07-28T01:01:48.619Z,952.16
2022-07-28T01:02:48.555Z,952.22
2022-07-28T01:03:48.477Z,952.21
2022-07-28T01:04:48.491Z,952.20
2022-07-28T01:05:48.448Z,952.19
2022-07-28T01:06:48.441Z,952.15
2022-07-28T01:07:48.429Z,952.14
2022-07-28T01:08:48.414Z,952.15
2022-07-28T01:09:48.423Z,952.17
2022-07-28T01:10:48.404Z,952.14
2022-07-28T01:11:48.411Z,952.16
2022-07-28T01:12:48.380Z,952.15
2022-07-28T01:13:48.342Z,952.13
2022-07-28T01:14:48.359Z,952.16
2022-07-28T01:15:48.385Z,952.14
2022-07-28T01:16:48.306Z,952.15
2022-07-28T01:17:48.289Z,952.10
2022-07-28T01:18:48.285Z,952.12
2022-07-28T01:19:48.295Z,952.08
2022-07-28T01:20:48.266Z,952.05
2022-07-28T01:21:48.320Z,952.04
2022-07-28T01:22:48.229Z,952.04
2022-07-28T01:23:48.206Z,952.04
2022-07-28T01:24:48.215Z,952.00
2022-07-28T01:25:48.794Z,952.03
2022-07-28T01:26:48.170Z,952.00
2022-07-28T01:27:48.160Z,952.04
2022-07-28T01:28:48.147Z,952.02
2022-07-28T01:29:48.135Z,951.98
2022-07-28T01:30:48.225Z,952.00
2022-07-28T01:31:48.260Z,952.03
2022-07-28T01:32:48.140Z,951.99
2022-07-28T01:33:48.079Z,951.96
2022-07-28T01:34:48.090Z,951.98
2022-07-28T01:35:48.078Z,951.95
2022-07-28T01:36:48.074Z,951.93
2022-07-28T01:37:48.050Z,951.92
2022-07-28T01:38:48.053Z,951.89
2022-07-28T01:39:47.993Z,951.87
2022-07-28T01:40:50.249Z,951.89
2022-07-28T01:41:47.983Z,951.87
2022-07-28T01:42:47.966Z,951.87
2022-07-28T01:43:47.967Z,951.84
2022-07-28T01:44:47.940Z,951.82
2022-07-28T01:45:47.913Z,951.81
2022-07-28T01:46:48.001Z,951.81
2022-07-28T01:47:47.921Z,951.79
2022-07-28T01:48:47.925Z,951.83
2022-07-28T01:49:47.864Z,951.82
2022-07-28T01:50:47.859Z,951.78
2022-07-28T01:51:47.852Z,951.85
2022-07-28T01:52:47.824Z,951.84
2022-07-28T01:53:47.815Z,951.83
2022-07-28T01:54:47.812Z,951.80
2022-07-28T01:55:47.782Z,951.80
2022-07-28T01:56:47.789Z,951.81
2022-07-28T01:57:47.778Z,951.79
2022-07-28T01:58:47.747Z,951.81
2022-07-28T01:59:47.751Z,951.85
2022-07-28T02:00:47.715Z,951.81
2022-07-28T02:01:47.757Z,951.86
2022-07-28T02:02:47.717Z,951.86
2022-07-28T02:03:47.670Z,951.83
2022-07-28T02:04:47.718Z,951.80
2022-07-28T02:05:47.647Z,951.79
2022-07-28T02:06:47.636Z,951.78
2022-07-28T02:07:47.646Z,951.78
2022-07-28T02:08:47.650Z,951.81
2022-07-28T02:09:47.595Z,951.78
2022-07-28T02:10:47.595Z,951.81
2022-07-28T02:11:47.562Z,951.81
2022-07-28T02:12:47.560Z,951.80
2022-07-28T02:13:47.575Z,951.77
2022-07-28T02:14:47.530Z,951.79
2022-07-28T02:15:47.760Z,951.83
2022-07-28T02:16:47.496Z,951.81
2022-07-28T02:17:47.506Z,951.80
2022-07-28T02:18:47.496Z,951.79
2022-07-28T02:19:47.461Z,951.82
2022-07-28T02:20:47.454Z,951.75
2022-07-28T02:21:47.431Z,951.76
2022-07-28T02:22:51.454Z,951.75
2022-07-28T02:23:47.440Z,951.72
2022-07-28T02:24:47.405Z,951.75
2022-07-28T02:25:47.375Z,951.71
2022-07-28T02:26:47.363Z,951.68
2022-07-28T02:27:47.354Z,951.69
2022-07-28T02:28:47.369Z,951.69
2022-07-28T02:29:51.729Z,951.66
2022-07-28T02:30:47.428Z,951.66
2022-07-28T02:31:47.304Z,951.67
2022-07-28T02:32:47.297Z,951.65
2022-07-28T02:33:59.757Z,951.70
2022-07-28T02:34:47.282Z,951.68
2022-07-28T02:35:48.938Z,951.64
2022-07-28T02:36:48.465Z,951.64
2022-07-28T02:37:47.221Z,951.66
2022-07-28T02:38:47.211Z,951.66
2022-07-28T02:39:55.310Z,951.64
2022-07-28T02:40:47.206Z,951.63
2022-07-28T02:41:47.183Z,951.63
2022-07-28T02:42:47.154Z,951.63
2022-07-28T02:43:49.832Z,951.62
2022-07-28T02:44:47.127Z,951.61
2022-07-28T02:45:47.239Z,951.59
2022-07-28T02:46:47.122Z,951.62
2022-07-28T02:47:47.093Z,951.65
2022-07-28T02:48:47.154Z,951.64
2022-07-28T02:49:47.057Z,951.63
2022-07-28T02:50:47.070Z,951.63
2022-07-28T02:51:47.035Z,951.64
2022-07-28T02:52:47.017Z,951.65
2022-07-28T02:53:47.008Z,951.65
2022-07-28T02:54:47.001Z,951.64
2022-07-28T02:55:47.014Z,951.65
2022-07-28T02:56:53.220Z,951.60
2022-07-28T02:57:46.958Z,951.66
2022-07-28T02:58:46.939Z,951.64
2022-07-28T02:59:46.947Z,951.64
2022-07-28T03:00:46.913Z,951.66
2022-07-28T03:01:46.931Z,951.66
2022-07-28T03:02:46.898Z,951.64
2022-07-28T03:03:46.887Z,951.65
2022-07-28T03:04:46.981Z,951.66
2022-07-28T03:05:46.863Z,951.64
2022-07-28T03:06:46.838Z,951.67
2022-07-28T03:07:50.969Z,951.68
2022-07-28T03:08:46.812Z,951.66
2022-07-28T03:09:46.789Z,951.68
2022-07-28T03:10:46.795Z,951.69
2022-07-28T03:11:46.787Z,951.68
2022-07-28T03:12:46.799Z,951.68
2022-07-28T03:13:46.733Z,951.71
2022-07-28T03:14:46.721Z,951.69
2022-07-28T03:15:46.730Z,951.73
2022-07-28T03:16:47.697Z,951.74
2022-07-28T03:17:46.703Z,951.72
2022-07-28T03:18:46.710Z,951.72
2022-07-28T03:19:46.652Z,951.74
2022-07-28T03:20:46.665Z,951.74
2022-07-28T03:21:46.624Z,951.76
2022-07-28T03:22:46.634Z,951.78
2022-07-28T03:23:46.620Z,951.79
2022-07-28T03:24:46.603Z,951.82
2022-07-28T03:25:46.650Z,951.82
2022-07-28T03:26:46.561Z,951.77
2022-07-28T03:27:46.546Z,951.82
2022-07-28T03:28:46.566Z,951.83
2022-07-28T03:29:46.533Z,951.88
2022-07-28T03:30:46.605Z,951.85
2022-07-28T03:31:46.490Z,951.87
2022-07-28T03:32:46.506Z,951.87
2022-07-28T03:33:46.463Z,951.82
2022-07-28T03:34:46.459Z,951.87
2022-07-28T03:35:46.492Z,951.83
2022-07-28T03:36:46.445Z,951.85
2022-07-28T03:37:46.417Z,951.87
2022-07-28T03:38:46.406Z,951.85
2022-07-28T03:39:46.403Z,951.86
2022-07-28T03:40:47.130Z,951.89
2022-07-28T03:41:46.354Z,951.89
2022-07-28T03:42:46.344Z,951.85
2022-07-28T03:43:46.400Z,951.88
2022-07-28T03:44:46.344Z,951.87
2022-07-28T03:45:46.698Z,951.91
2022-07-28T03:46:46.289Z,951.89
2022-07-28T03:47:46.388Z,951.90
2022-07-28T03:48:46.315Z,951.89
2022-07-28T03:49:46.261Z,951.92
2022-07-28T03:50:46.293Z,951.92
2022-07-28T03:51:46.217Z,951.89
2022-07-28T03:52:46.252Z,951.91
2022-07-28T03:53:46.226Z,951.91
2022-07-28T03:54:46.194Z,951.94
2022-07-28T03:55:46.173Z,951.91
2022-07-28T03:56:46.166Z,951.95
2022-07-28T03:57:46.157Z,951.90
2022-07-28T03:58:46.163Z,951.94
2022-07-28T03:59:46.115Z,951.91
2022-07-28T04:00:46.191Z,951.89
2022-07-28T04:01:46.131Z,951.86
2022-07-28T04:02:46.156Z,951.87
2022-07-28T04:03:46.058Z,951.86
2022-07-28T04:04:46.080Z,951.84
2022-07-28T04:05:46.098Z,951.80
2022-07-28T04:06:46.024Z,951.81
2022-07-28T04:07:46.046Z,951.83
2022-07-28T04:08:45.997Z,951.81
2022-07-28T04:09:45.990Z,951.79
2022-07-28T04:10:46.021Z,951.81
2022-07-28T04:11:45.959Z,951.80
2022-07-28T04:12:45.950Z,951.78
2022-07-28T04:13:45.931Z,951.75
2022-07-28T04:14:45.947Z,951.77
2022-07-28T04:15:45.912Z,951.74
2022-07-28T04:16:45.971Z,951.75
2022-07-28T04:17:45.877Z,951.73
2022-07-28T04:18:45.867Z,951.74
2022-07-28T04:19:45.870Z,951.77
2022-07-28T04:20:45.951Z,951.78
2022-07-28T04:21:45.829Z,951.80
2022-07-28T04:22:45.814Z,951.78
2022-07-28T04:23:45.816Z,951.76
2022-07-28T04:24:45.777Z,951.79
2022-07-28T04:25:45.880Z,951.82
2022-07-28T04:26:45.778Z,951.82
2022-07-28T04:27:45.739Z,951.84
2022-07-28T04:28:45.731Z,951.83
2022-07-28T04:29:45.712Z,951.83
2022-07-28T04:30:46.099Z,951.85
2022-07-28T04:31:45.704Z,951.85
2022-07-28T04:32:45.675Z,951.83
2022-07-28T04:33:45.656Z,951.87
2022-07-28T04:34:45.668Z,951.83
2022-07-28T04:35:45.625Z,951.86
2022-07-28T04:36:45.646Z,951.88
2022-07-28T04:37:45.632Z,951.87
2022-07-28T04:38:45.595Z,951.85
2022-07-28T04:39:45.648Z,951.85
2022-07-28T04:40:45.574Z,951.86
2022-07-28T04:41:45.548Z,951.82
2022-07-28T04:42:45.582Z,951.87
2022-07-28T04:43:45.624Z,951.83
2022-07-28T04:44:45.506Z,951.88
2022-07-28T04:45:53.303Z,951.84
2022-07-28T04:46:45.561Z,951.85
2022-07-28T04:47:45.494Z,951.85
2022-07-28T04:48:45.534Z,951.84
2022-07-28T04:49:45.474Z,951.82
2022-07-28T04:50:45.435Z,951.79
2022-07-28T04:51:45.413Z,951.80
2022-07-28T04:52:45.425Z,951.83
2022-07-28T04:53:45.394Z,951.85
2022-07-28T04:54:45.394Z,951.82
2022-07-28T04:55:45.373Z,951.85
2022-07-28T04:56:45.352Z,951.87
2022-07-28T04:57:45.652Z,951.84
2022-07-28T04:58:45.328Z,951.82
2022-07-28T04:59:45.349Z,951.84
2022-07-28T05:00:45.401Z,951.83
2022-07-28T05:01:45.341Z,951.85
2022-07-28T05:02:45.271Z,951.82
2022-07-28T05:03:45.257Z,951.84
2022-07-28T05:04:45.308Z,951.82
2022-07-28T05:05:49.171Z,951.78
2022-07-28T05:06:45.216Z,951.82
2022-07-28T05:07:45.212Z,951.82
2022-07-28T05:08:45.285Z,951.80
2022-07-28T05:09:45.179Z,951.85
2022-07-28T05:10:45.188Z,951.79
2022-07-28T05:11:45.148Z,951.82
2022-07-28T05:12:45.143Z,951.80
2022-07-28T05:13:45.163Z,951.82
2022-07-28T05:14:45.114Z,951.81
2022-07-28T05:15:45.148Z,951.79
2022-07-28T05:16:45.131Z,951.82
2022-07-28T05:17:45.088Z,951.80
2022-07-28T05:18:45.081Z,951.81
2022-07-28T05:19:45.075Z,951.85
2022-07-28T05:20:45.023Z,951.83
2022-07-28T05:21:45.010Z,951.87
2022-07-28T05:22:45.019Z,951.88
2022-07-28T05:23:47.658Z,951.86
2022-07-28T05:24:45.002Z,951.84
2022-07-28T05:25:44.986Z,951.83
2022-07-28T05:26:44.944Z,951.87
2022-07-28T05:27:44.943Z,951.88
2022-07-28T05:28:44.946Z,951.85
2022-07-28T05:29:47.735Z,951.81
2022-07-28T05:30:44.921Z,951.84
2022-07-28T05:31:45.003Z,951.81
2022-07-28T05:32:44.861Z,951.79
2022-07-28T05:33:44.885Z,951.81
2022-07-28T05:34:44.883Z,951.81
2022-07-28T05:35:44.828Z,951.80
2022-07-28T05:36:44.816Z,951.77
2022-07-28T05:37:44.800Z,951.84
2022-07-28T05:38:44.794Z,951.81
2022-07-28T05:39:44.804Z,951.84
2022-07-28T05:40:44.768Z,951.82
2022-07-28T05:41:44.792Z,951.87
2022-07-28T05:42:44.725Z,951.87
2022-07-28T05:43:44.730Z,951.87
2022-07-28T05:44:44.742Z,951.88
2022-07-28T05:45:44.825Z,951.85
2022-07-28T05:46:44.778Z,951.84
2022-07-28T05:47:44.661Z,951.87
2022-07-28T05:48:44.727Z,951.87
2022-07-28T05:49:44.637Z,951.84
2022-07-28T05:50:44.739Z,951.85
2022-07-28T05:51:44.604Z,951.89
2022-07-28T05:52:44.595Z,951.93
2022-07-28T05:53:44.594Z,951.91
2022-07-28T05:54:44.598Z,951.92
2022-07-28T05:55:57.819Z,951.97
2022-07-28T05:56:49.835Z,951.96
2022-07-28T05:57:44.545Z,951.96
2022-07-28T05:58:44.548Z,951.97
2022-07-28T05:59:44.508Z,951.93
2022-07-28T06:00:44.563Z,951.93
2022-07-28T06:01:44.557Z,951.97
2022-07-28T06:02:44.599Z,952.00
2022-07-28T06:03:47.805Z,951.99
2022-07-28T06:04:44.457Z,952.00
2022-07-28T06:06:09.709Z,952.02
2022-07-28T06:06:44.435Z,951.98
2022-07-28T06:07:44.557Z,951.96
2022-07-28T06:08:44.488Z,951.96
2022-07-28T06:09:45.295Z,951.95
2022-07-28T06:10:44.403Z,951.90
2022-07-28T06:11:44.344Z,951.90
2022-07-28T06:12:44.331Z,951.92
2022-07-28T06:13:44.345Z,951.95
2022-07-28T06:14:44.309Z,951.91
2022-07-28T06:15:44.320Z,951.90
2022-07-28T06:16:44.320Z,951.93
2022-07-28T06:17:44.272Z,951.85
2022-07-28T06:18:44.282Z,951.87
2022-07-28T06:19:44.240Z,951.87
2022-07-28T06:20:44.266Z,951.87
2022-07-28T06:21:44.220Z,951.85
2022-07-28T06:22:44.206Z,951.84
2022-07-28T06:23:44.189Z,951.81
2022-07-28T06:24:44.206Z,951.83
2022-07-28T06:25:44.164Z,951.80
2022-07-28T06:26:45.056Z,951.83
2022-07-28T06:27:44.134Z,951.83
2022-07-28T06:28:44.119Z,951.83
2022-07-28T06:29:44.107Z,951.80
2022-07-28T06:30:44.117Z,951.85
2022-07-28T06:31:44.193Z,951.84
2022-07-28T06:32:44.056Z,951.89
2022-07-28T06:33:44.056Z,951.81
2022-07-28T06:34:44.053Z,951.85
2022-07-28T06:35:46.649Z,951.85
2022-07-28T06:36:44.074Z,951.88
2022-07-28T06:37:44.000Z,951.88
2022-07-28T06:38:43.979Z,951.88
2022-07-28T06:39:44.066Z,951.85
2022-07-28T06:40:43.984Z,951.81
2022-07-28T06:41:43.989Z,951.80
2022-07-28T06:42:43.951Z,951.81
2022-07-28T06:43:43.962Z,951.82
2022-07-28T06:44:58.527Z,951.80
2022-07-28T06:45:43.898Z,951.82
2022-07-28T06:46:43.994Z,951.81
2022-07-28T06:47:45.752Z,951.82
2022-07-28T06:48:43.930Z,951.84
2022-07-28T06:49:43.893Z,951.86
2022-07-28T06:50:43.851Z,951.86
2022-07-28T06:51:43.811Z,951.81
2022-07-28T06:52:43.814Z,951.79
2022-07-28T06:53:43.826Z,951.84
2022-07-28T06:54:48.809Z,951.83
2022-07-28T06:55:43.771Z,951.81
2022-07-28T06:56:43.768Z,951.82
2022-07-28T06:57:43.736Z,951.81
2022-07-28T06:58:46.506Z,951.81
2022-07-28T06:59:43.702Z,951.83
2022-07-28T07:00:43.799Z,951.82
2022-07-28T07:01:43.704Z,951.80
2022-07-28T07:02:43.653Z,951.78
2022-07-28T07:03:43.754Z,951.79
2022-07-28T07:04:43.798Z,951.75
2022-07-28T07:05:43.619Z,951.79
2022-07-28T07:06:43.636Z,951.75
2022-07-28T07:07:43.901Z,951.71
2022-07-28T07:08:43.579Z,951.70
2022-07-28T07:09:43.588Z,951.71
2022-07-28T07:10:43.556Z,951.72
2022-07-28T07:11:43.563Z,951.71
2022-07-28T07:12:43.520Z,951.70
2022-07-28T07:13:43.512Z,951.68
2022-07-28T07:14:43.512Z,951.70
2022-07-28T07:15:43.521Z,951.66
2022-07-28T07:16:43.606Z,951.69
2022-07-28T07:17:43.504Z,951.67
2022-07-28T07:18:43.448Z,951.64
2022-07-28T07:19:43.444Z,951.66
2022-07-28T07:20:43.420Z,951.68
2022-07-28T07:21:43.415Z,951.62
2022-07-28T07:22:43.428Z,951.63
2022-07-28T07:23:43.417Z,951.66
2022-07-28T07:24:43.360Z,951.66
2022-07-28T07:25:43.359Z,951.68
2022-07-28T07:26:43.336Z,951.66
2022-07-28T07:27:43.342Z,951.68
2022-07-28T07:28:43.319Z,951.62
2022-07-28T07:29:43.317Z,951.60
2022-07-28T07:30:43.304Z,951.58
2022-07-28T07:31:43.358Z,951.59
2022-07-28T07:32:43.298Z,951.60
2022-07-28T07:33:43.256Z,951.52
2022-07-28T07:34:43.238Z,951.50
2022-07-28T07:35:43.334Z,951.50
2022-07-28T07:36:43.249Z,951.54
2022-07-28T07:37:43.234Z,951.53
2022-07-28T07:38:43.178Z,951.53
2022-07-28T07:39:43.168Z,951.57
2022-07-28T07:40:43.174Z,951.56
2022-07-28T07:41:43.167Z,951.54
2022-07-28T07:42:43.120Z,951.55
2022-07-28T07:43:47.520Z,951.57
2022-07-28T07:44:43.099Z,951.56
2022-07-28T07:45:43.104Z,951.55
2022-07-28T07:46:43.125Z,951.53
2022-07-28T07:47:43.063Z,951.52
2022-07-28T07:48:43.113Z,951.54
2022-07-28T07:49:45.829Z,951.52
2022-07-28T07:50:43.026Z,951.52
2022-07-28T07:51:43.019Z,951.51
2022-07-28T07:52:42.986Z,951.48
2022-07-28T07:53:43.006Z,951.50
2022-07-28T07:54:42.978Z,951.47
2022-07-28T07:55:42.960Z,951.48
2022-07-28T07:56:42.935Z,951.48
2022-07-28T07:57:42.928Z,951.47
2022-07-28T07:58:43.037Z,951.51
2022-07-28T07:59:42.901Z,951.44
2022-07-28T08:00:42.884Z,951.48
2022-07-28T08:01:42.945Z,951.49
2022-07-28T08:02:42.870Z,951.44
2022-07-28T08:03:42.881Z,951.46
2022-07-28T08:04:42.974Z,951.42
2022-07-28T08:05:42.835Z,951.39
2022-07-28T08:06:42.807Z,951.40
2022-07-28T08:07:42.800Z,951.38
2022-07-28T08:08:48.024Z,951.38
2022-07-28T08:09:42.806Z,951.40
2022-07-28T08:10:42.766Z,951.36
2022-07-28T08:11:42.754Z,951.46
2022-07-28T08:12:42.778Z,951.40
2022-07-28T08:13:42.718Z,951.40
2022-07-28T08:14:42.694Z,951.39
2022-07-28T08:15:42.726Z,951.39
2022-07-28T08:16:42.725Z,951.39
2022-07-28T08:17:42.694Z,951.41
2022-07-28T08:18:42.645Z,951.43
2022-07-28T08:19:42.666Z,951.40
2022-07-28T08:20:42.621Z,951.39
2022-07-28T08:21:42.638Z,951.45
2022-07-28T08:22:42.617Z,951.34
2022-07-28T08:23:42.584Z,951.38
2022-07-28T08:24:42.580Z,951.38
2022-07-28T08:25:42.560Z,951.39
2022-07-28T08:26:42.558Z,951.42
2022-07-28T08:27:42.536Z,951.31
2022-07-28T08:28:42.506Z,951.31
2022-07-28T08:29:42.523Z,951.33
2022-07-28T08:30:42.515Z,951.33
2022-07-28T08:31:42.576Z,951.31
2022-07-28T08:32:42.459Z,951.34
2022-07-28T08:33:53.473Z,951.32
2022-07-28T08:34:42.447Z,951.31
2022-07-28T08:35:42.451Z,951.31
2022-07-28T08:36:42.404Z,951.30
2022-07-28T08:37:42.390Z,951.31
2022-07-28T08:38:42.380Z,951.28
2022-07-28T08:39:42.398Z,951.31
2022-07-28T08:40:42.355Z,951.32
2022-07-28T08:41:42.345Z,951.29
2022-07-28T08:42:42.350Z,951.25
2022-07-28T08:43:42.308Z,951.24
2022-07-28T08:44:42.291Z,951.24
2022-07-28T08:45:42.515Z,951.23
2022-07-28T08:46:42.338Z,951.27
2022-07-28T08:48:09.698Z,951.26
2022-07-28T08:48:42.313Z,951.23
2022-07-28T08:49:42.245Z,951.22
2022-07-28T08:50:42.251Z,951.26
2022-07-28T08:51:42.213Z,951.22
2022-07-28T08:52:42.201Z,951.26
2022-07-28T08:53:42.235Z,951.23
2022-07-28T08:54:42.181Z,951.26
2022-07-28T08:55:42.158Z,951.23
2022-07-28T08:56:48.116Z,951.26
2022-07-28T08:57:42.130Z,951.24
2022-07-28T08:58:42.120Z,951.30
2022-07-28T08:59:42.104Z,951.30
2022-07-28T09:00:42.180Z,951.33
2022-07-28T09:01:42.169Z,951.33
2022-07-28T09:02:42.288Z,951.29
2022-07-28T09:03:42.126Z,951.34
2022-07-28T09:04:42.038Z,951.24
2022-07-28T09:05:42.082Z,951.24
2022-07-28T09:06:42.031Z,951.22
2022-07-28T09:07:41.998Z,951.24
2022-07-28T09:08:43.547Z,951.24
2022-07-28T09:09:42.008Z,951.26
2022-07-28T09:10:41.979Z,951.23
2022-07-28T09:11:41.939Z,951.23
2022-07-28T09:12:41.930Z,951.20
2022-07-28T09:13:41.917Z,951.20
2022-07-28T09:14:41.900Z,951.25
2022-07-28T09:15:41.950Z,951.24
2022-07-28T09:16:41.910Z,951.26
2022-07-28T09:17:41.865Z,951.25
2022-07-28T09:18:41.853Z,951.26
2022-07-28T09:19:41.866Z,951.26
2022-07-28T09:20:41.843Z,951.21
2022-07-28T09:21:41.800Z,951.25
2022-07-28T09:22:41.808Z,951.18
2022-07-28T09:23:44.213Z,951.18
2022-07-28T09:24:41.809Z,951.23
2022-07-28T09:25:41.759Z,951.20
2022-07-28T09:26:41.770Z,951.18
2022-07-28T09:27:41.734Z,951.16
2022-07-28T09:28:41.716Z,951.16
2022-07-28T09:29:41.714Z,951.15
2022-07-28T09:30:45.629Z,951.16
2022-07-28T09:31:41.835Z,951.17
2022-07-28T09:32:41.669Z,951.19
2022-07-28T09:33:43.999Z,951.17
2022-07-28T09:34:41.645Z,951.16
2022-07-28T09:35:41.626Z,951.11
2022-07-28T09:36:41.664Z,951.13
2022-07-28T09:37:41.604Z,951.13
2022-07-28T09:38:41.621Z,951.10
2022-07-28T09:39:41.573Z,951.14
2022-07-28T09:40:41.560Z,951.13
2022-07-28T09:41:41.565Z,951.14
2022-07-28T09:42:41.534Z,951.13
2022-07-28T09:43:41.517Z,951.14
2022-07-28T09:44:47.379Z,951.12
2022-07-28T09:45:41.498Z,951.14
2022-07-28T09:46:41.710Z,951.12
2022-07-28T09:47:41.788Z,951.10
2022-07-28T09:48:41.723Z,951.13
2022-07-28T09:49:41.526Z,951.04
2022-07-28T09:50:41.423Z,951.10
2022-07-28T09:51:41.416Z,951.09
2022-07-28T09:52:41.409Z,951.12
2022-07-28T09:53:41.449Z,951.13
2022-07-28T09:54:41.624Z,951.08
2022-07-28T09:55:41.356Z,951.04
2022-07-28T09:56:41.360Z,951.03
2022-07-28T09:57:42.663Z,951.06
2022-07-28T09:58:41.323Z,951.10
2022-07-28T09:59:41.325Z,951.09
2022-07-28T10:00:41.292Z,951.07
2022-07-28T10:01:41.322Z,951.05
2022-07-28T10:02:41.310Z,951.07
2022-07-28T10:03:41.253Z,951.05
2022-07-28T10:04:41.269Z,951.02
2022-07-28T10:05:41.215Z,951.03
2022-07-28T10:06:41.205Z,951.01
2022-07-28T10:07:41.195Z,950.99
2022-07-28T10:08:42.014Z,950.96
2022-07-28T10:09:41.184Z,951.00
2022-07-28T10:10:41.207Z,951.00
2022-07-28T10:11:41.845Z,951.00
2022-07-28T10:12:41.126Z,950.98
2022-07-28T10:13:41.131Z,951.04
2022-07-28T10:14:41.104Z,951.03
2022-07-28T10:15:43.319Z,950.98
2022-07-28T10:16:41.141Z,951.01
2022-07-28T10:17:41.051Z,950.97
2022-07-28T10:18:41.051Z,951.01
2022-07-28T10:19:41.059Z,951.00
2022-07-28T10:20:41.025Z,951.03
2022-07-28T10:21:41.049Z,950.94
2022-07-28T10:22:43.287Z,950.98
2022-07-28T10:23:40.968Z,951.06
2022-07-28T10:24:40.966Z,951.03
2022-07-28T10:25:40.977Z,950.99
2022-07-28T10:26:40.960Z,951.02
2022-07-28T10:27:40.927Z,950.98
2022-07-28T10:28:42.396Z,951.01
2022-07-28T10:29:40.894Z,950.99
2022-07-28T10:30:40.934Z,950.99
2022-07-28T10:31:40.879Z,950.97
2022-07-28T10:32:40.884Z,950.95
2022-07-28T10:33:40.865Z,950.95
2022-07-28T10:34:40.854Z,950.94
2022-07-28T10:35:49.653Z,950.93
2022-07-28T10:36:40.829Z,950.95
2022-07-28T10:37:40.832Z,950.93
2022-07-28T10:38:40.782Z,950.93
2022-07-28T10:39:40.791Z,950.92
2022-07-28T10:40:40.765Z,950.93
2022-07-28T10:41:40.777Z,950.96
2022-07-28T10:42:40.740Z,950.91
2022-07-28T10:43:42.656Z,950.95
2022-07-28T10:44:40.712Z,950.91
2022-07-28T10:46:04.311Z,950.88
2022-07-28T10:46:40.755Z,950.89
2022-07-28T10:47:40.678Z,950.87
2022-07-28T10:48:40.709Z,950.85
2022-07-28T10:49:40.646Z,950.91
2022-07-28T10:50:40.627Z,950.93
2022-07-28T10:51:54.165Z,950.94
2022-07-28T10:52:50.119Z,950.91
2022-07-28T10:53:40.608Z,950.89
2022-07-28T10:54:41.168Z,950.87
2022-07-28T10:55:40.853Z,950.87
2022-07-28T10:56:40.548Z,950.87
2022-07-28T10:57:40.560Z,950.88
2022-07-28T10:58:40.529Z,950.88
2022-07-28T10:59:40.512Z,950.88
2022-07-28T11:00:54.973Z,950.87
2022-07-28T11:01:49.636Z,950.91
2022-07-28T11:02:40.659Z,950.82
2022-07-28T11:03:41.062Z,950.83
2022-07-28T11:04:40.470Z,950.84
2022-07-28T11:05:40.431Z,950.82
2022-07-28T11:06:40.415Z,950.82
2022-07-28T11:07:40.443Z,950.85
2022-07-28T11:08:40.422Z,950.82
2022-07-28T11:09:40.411Z,950.80
2022-07-28T11:10:40.383Z,950.82
2022-07-28T11:11:40.351Z,950.81
2022-07-28T11:12:40.390Z,950.81
2022-07-28T11:13:41.265Z,950.81
2022-07-28T11:14:40.356Z,950.78
2022-07-28T11:15:40.311Z,950.83
2022-07-28T11:16:40.539Z,950.74
2022-07-28T11:17:40.295Z,950.75
2022-07-28T11:18:40.368Z,950.82
2022-07-28T11:19:55.744Z,950.79
2022-07-28T11:20:40.243Z,950.74
2022-07-28T11:21:43.596Z,950.82
2022-07-28T11:22:40.239Z,950.74
2022-07-28T11:23:40.195Z,950.74
2022-07-28T11:24:40.193Z,950.73
2022-07-28T11:25:40.202Z,950.72
2022-07-28T11:26:40.156Z,950.74
2022-07-28T11:27:40.176Z,950.71
2022-07-28T11:28:40.131Z,950.66
2022-07-28T11:29:40.111Z,950.64
2022-07-28T11:30:40.177Z,950.69
2022-07-28T11:31:40.094Z,950.70
2022-07-28T11:32:44.280Z,950.66
2022-07-28T11:33:40.081Z,950.68
2022-07-28T11:34:40.064Z,950.63
2022-07-28T11:35:40.106Z,950.61
2022-07-28T11:36:40.087Z,950.59
2022-07-28T11:37:40.024Z,950.64
2022-07-28T11:38:40.030Z,950.64
2022-07-28T11:39:43.869Z,950.62
2022-07-28T11:40:39.981Z,950.66
2022-07-28T11:41:39.972Z,950.63
2022-07-28T11:42:39.953Z,950.64
2022-07-28T11:43:39.961Z,950.67
2022-07-28T11:44:39.928Z,950.61
2022-07-28T11:45:43.222Z,950.68
2022-07-28T11:46:40.024Z,950.66
2022-07-28T11:47:39.921Z,950.64
2022-07-28T11:48:40.031Z,950.62
2022-07-28T11:49:39.868Z,950.62
2022-07-28T11:50:39.848Z,950.63
2022-07-28T11:51:51.344Z,950.58
2022-07-28T11:52:39.833Z,950.63
2022-07-28T11:53:39.833Z,950.61
2022-07-28T11:54:39.818Z,950.60
2022-07-28T11:55:55.745Z,950.60
2022-07-28T11:56:39.775Z,950.58
2022-07-28T11:57:39.773Z,950.56
2022-07-28T11:58:39.763Z,950.53
2022-07-28T11:59:39.765Z,950.58
2022-07-28T12:00:39.723Z,950.56
2022-07-28T12:01:39.701Z,950.56
2022-07-28T12:02:39.794Z,950.54
2022-07-28T12:03:49.697Z,950.59
2022-07-28T12:04:39.724Z,950.63
2022-07-28T12:05:41.649Z,950.57
2022-07-28T12:06:39.655Z,950.57
2022-07-28T12:07:39.647Z,950.55
2022-07-28T12:08:39.616Z,950.59
2022-07-28T12:09:42.522Z,950.56
2022-07-28T12:10:56.092Z,950.57
2022-07-28T12:11:39.620Z,950.54
2022-07-28T12:12:39.569Z,950.55
2022-07-28T12:13:39.561Z,950.50
2022-07-28T12:14:39.554Z,950.53
2022-07-28T12:15:39.554Z,950.55
2022-07-28T12:16:39.966Z,950.52
2022-07-28T12:17:40.661Z,950.53
2022-07-28T12:18:39.498Z,950.52
2022-07-28T12:19:39.475Z,950.52
2022-07-28T12:20:39.467Z,950.49
2022-07-28T12:21:47.518Z,950.53
2022-07-28T12:22:39.468Z,950.53
2022-07-28T12:23:45.589Z,950.52
2022-07-28T12:24:45.132Z,950.52
2022-07-28T12:25:39.404Z,950.50
2022-07-28T12:26:40.919Z,950.48
2022-07-28T12:27:39.389Z,950.47
2022-07-28T12:28:39.392Z,950.45